createdAt,value
2018-12-18T00:00:42.770Z,24.90
2018-12-18T00:01:42.693Z,24.50
2018-12-18T00:02:42.607Z,25.30
2018-12-18T00:03:42.519Z,23.50
2018-12-18T00:04:42.431Z,25.70
2018-12-18T00:05:42.343Z,23.80
2018-12-18T00:06:42.258Z,26.80
2018-12-18T00:07:42.182Z,22.90
2018-12-18T00:08:42.082Z,24.30
2018-12-18T00:09:41.995Z,25.20
2018-12-18T00:10:41.913Z,25.40
2018-12-18T00:11:41.832Z,24.00
2018-12-18T00:12:41.745Z,25.30
2018-12-18T00:13:41.659Z,23.40
2018-12-18T00:14:41.570Z,22.40
2018-12-18T00:15:41.483Z,24.80
2018-12-18T00:16:41.395Z,21.80
2018-12-18T00:17:41.313Z,24.40
2018-12-18T00:18:41.220Z,23.00
2018-12-18T00:19:41.133Z,23.30
2018-12-18T00:20:41.060Z,25.20
2018-12-18T00:21:40.983Z,24.40
2018-12-18T00:22:40.883Z,23.20
2018-12-18T00:23:40.800Z,24.60
2018-12-18T00:24:40.713Z,24.50
2018-12-18T00:25:40.620Z,26.10
2018-12-18T00:26:40.534Z,25.70
2018-12-18T00:27:40.448Z,25.80
2018-12-18T00:28:40.372Z,26.50
2018-12-18T00:29:40.285Z,22.60
2018-12-18T00:30:40.196Z,24.20
2018-12-18T00:31:40.109Z,27.70
2018-12-18T00:32:40.021Z,26.10
2018-12-18T00:33:45.890Z,27.70
2018-12-18T00:34:39.847Z,26.00
2018-12-18T00:35:39.761Z,26.20
2018-12-18T00:36:39.672Z,24.20
2018-12-18T00:37:39.585Z,26.70
2018-12-18T00:38:39.498Z,25.80
2018-12-18T00:39:39.422Z,25.10
2018-12-18T00:40:39.335Z,27.10
2018-12-18T00:41:39.246Z,25.80
2018-12-18T00:42:39.162Z,27.40
2018-12-18T00:43:39.073Z,23.20
2018-12-18T00:44:38.986Z,23.70
2018-12-18T00:45:38.897Z,23.80
2018-12-18T00:46:38.811Z,22.90
2018-12-18T00:47:38.723Z,28.60
2018-12-18T00:48:38.649Z,23.80
2018-12-18T00:49:38.562Z,25.90
2018-12-18T00:50:38.485Z,26.00
2018-12-18T00:51:38.389Z,24.70
2018-12-18T00:52:38.298Z,25.30
2018-12-18T00:53:38.214Z,26.70
2018-12-18T00:54:38.125Z,24.40
2018-12-18T00:55:38.037Z,26.20
2018-12-18T00:56:37.949Z,24.30
2018-12-18T00:57:37.875Z,25.20
2018-12-18T00:58:37.787Z,24.30
2018-12-18T00:59:37.700Z,26.60
2018-12-18T01:00:37.616Z,23.80
2018-12-18T01:01:37.524Z,25.80
2018-12-18T01:02:37.438Z,27.20
2018-12-18T01:03:37.354Z,25.60
2018-12-18T01:04:37.263Z,22.90
2018-12-18T01:05:37.191Z,26.40
2018-12-18T01:06:37.089Z,26.80
2018-12-18T01:07:37.018Z,24.70
2018-12-18T01:08:36.926Z,24.70
2018-12-18T01:09:36.839Z,25.50
2018-12-18T01:10:36.751Z,24.50
2018-12-18T01:11:36.663Z,26.30
2018-12-18T01:12:36.611Z,25.10
2018-12-18T01:13:36.489Z,27.30
2018-12-18T01:14:36.401Z,25.80
2018-12-18T01:15:36.316Z,23.70
2018-12-18T01:16:36.239Z,26.10
2018-12-18T01:17:36.151Z,23.70
2018-12-18T01:18:36.064Z,24.90
2018-12-18T01:19:35.977Z,23.60
2018-12-18T01:20:35.890Z,23.50
2018-12-18T01:21:35.808Z,25.00
2018-12-18T01:22:35.715Z,23.30
2018-12-18T01:23:35.627Z,27.00
2018-12-18T01:24:35.540Z,25.20
2018-12-18T01:25:35.466Z,26.60
2018-12-18T01:26:35.377Z,25.10
2018-12-18T01:27:35.291Z,22.80
2018-12-18T01:28:35.203Z,24.30
2018-12-18T01:29:35.116Z,23.30
2018-12-18T01:30:35.027Z,23.10
2018-12-18T01:31:34.942Z,26.80
2018-12-18T01:32:34.854Z,22.70
2018-12-18T01:33:34.778Z,24.00
2018-12-18T01:34:34.680Z,23.80
2018-12-18T01:35:34.616Z,22.50
2018-12-18T01:36:34.518Z,24.20
2018-12-18T01:37:34.429Z,22.30
2018-12-18T01:38:34.342Z,25.00
2018-12-18T01:39:34.255Z,24.60
2018-12-18T01:40:34.169Z,25.00
2018-12-18T01:41:34.080Z,25.10
2018-12-18T01:42:33.994Z,24.40
2018-12-18T01:43:33.906Z,24.80
2018-12-18T01:44:33.830Z,23.20
2018-12-18T01:45:33.748Z,24.00
2018-12-18T01:46:33.655Z,24.10
2018-12-18T01:47:33.568Z,26.20
2018-12-18T01:48:33.480Z,22.50
2018-12-18T01:49:33.402Z,23.40
2018-12-18T01:50:33.307Z,25.70
2018-12-18T01:51:33.219Z,22.90
2018-12-18T01:52:33.144Z,23.50
2018-12-18T01:53:33.069Z,24.70
2018-12-18T01:54:32.976Z,23.40
2018-12-18T01:55:32.881Z,23.90
2018-12-18T01:56:32.797Z,24.30
2018-12-18T01:57:32.707Z,22.70
2018-12-18T01:58:32.620Z,23.50
2018-12-18T01:59:32.545Z,24.80
2018-12-18T02:00:32.458Z,22.30
2018-12-18T02:01:32.370Z,24.20
2018-12-18T02:02:32.282Z,25.40
2018-12-18T02:03:32.199Z,23.00
2018-12-18T02:04:32.111Z,24.50
2018-12-18T02:05:32.021Z,24.10
2018-12-18T02:06:31.933Z,23.10
2018-12-18T02:07:31.857Z,21.70
2018-12-18T02:08:31.770Z,22.00
2018-12-18T02:09:31.696Z,22.00
2018-12-18T02:10:31.599Z,23.30
2018-12-18T02:11:31.509Z,26.80
2018-12-18T02:12:31.428Z,23.00
2018-12-18T02:13:31.333Z,23.20
2018-12-18T02:14:31.258Z,24.30
2018-12-18T02:15:31.159Z,22.50
2018-12-18T02:16:31.097Z,22.40
2018-12-18T02:17:30.998Z,22.30
2018-12-18T02:18:30.909Z,23.90
2018-12-18T02:19:30.823Z,22.30
2018-12-18T02:20:30.735Z,22.30
2018-12-18T02:21:30.659Z,24.40
2018-12-18T02:22:30.560Z,22.90
2018-12-18T02:23:30.473Z,25.10
2018-12-18T02:24:30.397Z,25.10
2018-12-18T02:25:30.310Z,21.90
2018-12-18T02:26:30.224Z,22.20
2018-12-18T02:27:30.137Z,23.10
2018-12-18T02:28:30.060Z,21.20
2018-12-18T02:29:29.972Z,24.30
2018-12-18T02:30:29.874Z,24.40
2018-12-18T02:31:29.799Z,22.40
2018-12-18T02:32:29.712Z,23.00
2018-12-18T02:33:29.625Z,22.30
2018-12-18T02:34:29.535Z,22.30
2018-12-18T02:35:29.461Z,22.30
2018-12-18T02:36:29.363Z,22.70
2018-12-18T02:37:29.286Z,22.30
2018-12-18T02:38:29.199Z,20.90
2018-12-18T02:39:29.111Z,22.80
2018-12-18T02:40:29.024Z,21.90
2018-12-18T02:41:28.936Z,20.90
2018-12-18T02:42:28.861Z,22.80
2018-12-18T02:43:28.761Z,20.80
2018-12-18T02:44:28.700Z,23.60
2018-12-18T02:45:28.601Z,20.40
2018-12-18T02:46:28.512Z,21.90
2018-12-18T02:47:28.425Z,24.40
2018-12-18T02:48:28.339Z,22.50
2018-12-18T02:49:28.262Z,25.20
2018-12-18T02:50:28.164Z,22.10
2018-12-18T02:51:28.104Z,22.30
2018-12-18T02:52:28.004Z,22.30
2018-12-18T02:53:27.913Z,23.20
2018-12-18T02:54:27.826Z,21.40
2018-12-18T02:55:27.742Z,24.20
2018-12-18T02:56:27.652Z,22.90
2018-12-18T02:57:27.563Z,24.50
2018-12-18T02:58:27.479Z,24.40
2018-12-18T02:59:27.411Z,23.50
2018-12-18T03:00:27.313Z,25.90
2018-12-18T03:01:27.227Z,23.50
2018-12-18T03:02:27.139Z,23.50
2018-12-18T03:03:27.063Z,23.50
2018-12-18T03:04:26.966Z,23.50
2018-12-18T03:05:26.877Z,23.70
2018-12-18T03:06:26.791Z,21.80
2018-12-18T03:07:26.714Z,24.00
2018-12-18T03:08:26.628Z,25.40
2018-12-18T03:09:26.540Z,24.00
2018-12-18T03:10:26.454Z,24.00
2018-12-18T03:11:26.366Z,25.20
2018-12-18T03:12:26.283Z,23.60
2018-12-18T03:13:26.192Z,25.50
2018-12-18T03:14:26.115Z,23.30
2018-12-18T03:15:26.029Z,24.20
2018-12-18T03:16:25.962Z,24.20
2018-12-18T03:17:25.855Z,26.10
2018-12-18T03:18:25.766Z,25.00
2018-12-18T03:19:25.684Z,24.60
2018-12-18T03:20:25.593Z,26.40
2018-12-18T03:21:25.516Z,27.00
2018-12-18T03:22:25.430Z,26.60
2018-12-18T03:23:25.357Z,25.30
2018-12-18T03:24:25.256Z,28.00
2018-12-18T03:25:25.167Z,26.70
2018-12-18T03:26:25.085Z,28.60
2018-12-18T03:27:24.992Z,28.90
2018-12-18T03:28:24.907Z,28.00
2018-12-18T03:29:24.833Z,28.70
2018-12-18T03:30:24.757Z,29.70
2018-12-18T03:31:24.665Z,28.10
2018-12-18T03:32:24.569Z,31.70
2018-12-18T03:33:24.487Z,31.40
2018-12-18T03:34:28.216Z,28.70
2018-12-18T03:35:24.305Z,29.10
2018-12-18T03:36:24.219Z,29.00
2018-12-18T03:37:24.155Z,31.90
2018-12-18T03:38:24.056Z,30.50
2018-12-18T03:39:23.968Z,30.90
2018-12-18T03:40:23.886Z,29.20
2018-12-18T03:41:23.795Z,33.10
2018-12-18T03:42:23.807Z,30.80
2018-12-18T03:43:23.619Z,31.10
2018-12-18T03:44:23.556Z,31.90
2018-12-18T03:45:23.456Z,31.20
2018-12-18T03:46:23.368Z,30.10
2018-12-18T03:47:23.285Z,30.40
2018-12-18T03:48:23.193Z,29.50
2018-12-18T03:49:23.106Z,30.70
2018-12-18T03:50:23.018Z,31.90
2018-12-18T03:51:22.932Z,31.70
2018-12-18T03:52:22.857Z,31.80
2018-12-18T03:53:22.769Z,31.20
2018-12-18T03:54:22.687Z,33.60
2018-12-18T03:55:22.594Z,31.80
2018-12-18T03:56:22.508Z,33.60
2018-12-18T03:57:22.419Z,33.30
2018-12-18T03:58:22.333Z,33.40
2018-12-18T03:59:22.258Z,35.10
2018-12-18T04:00:22.173Z,34.40
2018-12-18T04:01:22.090Z,33.00
2018-12-18T04:02:21.995Z,33.10
2018-12-18T04:03:21.908Z,34.70
2018-12-18T04:04:21.820Z,34.20
2018-12-18T04:05:21.735Z,33.70
2018-12-18T04:06:21.653Z,34.40
2018-12-18T04:07:21.559Z,37.40
2018-12-18T04:08:21.487Z,39.30
2018-12-18T04:09:21.396Z,35.60
2018-12-18T04:10:21.309Z,37.00
2018-12-18T04:11:21.222Z,40.00
2018-12-18T04:12:21.134Z,39.40
2018-12-18T04:13:21.047Z,38.80
2018-12-18T04:14:20.961Z,39.10
2018-12-18T04:15:20.886Z,38.30
2018-12-18T04:16:20.799Z,36.30
2018-12-18T04:17:20.712Z,38.90
2018-12-18T04:18:20.622Z,37.80
2018-12-18T04:19:20.535Z,42.70
2018-12-18T04:20:20.449Z,38.00
2018-12-18T04:21:20.361Z,43.40
2018-12-18T04:22:20.283Z,41.20
2018-12-18T04:23:20.206Z,42.70
2018-12-18T04:24:20.114Z,45.50
2018-12-18T04:25:20.024Z,43.00
2018-12-18T04:26:19.936Z,42.00
2018-12-18T04:27:19.848Z,41.20
2018-12-18T04:28:19.762Z,40.80
2018-12-18T04:29:19.688Z,42.00
2018-12-18T04:30:19.598Z,45.90
2018-12-18T04:31:19.516Z,40.10
2018-12-18T04:32:19.424Z,43.10
2018-12-18T04:33:19.336Z,42.50
2018-12-18T04:34:19.250Z,47.40
2018-12-18T04:35:19.162Z,45.60
2018-12-18T04:36:19.084Z,44.30
2018-12-18T04:37:18.999Z,42.80
2018-12-18T04:38:18.913Z,47.60
2018-12-18T04:39:18.828Z,43.80
2018-12-18T04:40:18.741Z,47.80
2018-12-18T04:41:18.650Z,47.60
2018-12-18T04:42:18.563Z,43.80
2018-12-18T04:43:18.476Z,44.40
2018-12-18T04:44:18.388Z,46.10
2018-12-18T04:45:18.314Z,50.50
2018-12-18T04:46:18.227Z,49.40
2018-12-18T04:47:18.140Z,50.50
2018-12-18T04:48:18.051Z,51.50
2018-12-18T04:49:17.964Z,54.10
2018-12-18T04:50:17.890Z,48.30
2018-12-18T04:51:17.790Z,51.30
2018-12-18T04:52:17.703Z,52.00
2018-12-18T04:53:17.626Z,48.70
2018-12-18T04:54:17.541Z,51.00
2018-12-18T04:55:17.460Z,53.50
2018-12-18T04:56:17.366Z,51.70
2018-12-18T04:57:17.289Z,51.90
2018-12-18T04:58:17.191Z,52.20
2018-12-18T04:59:17.102Z,52.20
2018-12-18T05:00:17.016Z,53.10
2018-12-18T05:01:16.941Z,52.80
2018-12-18T05:02:16.852Z,51.30
2018-12-18T05:03:16.765Z,52.50
2018-12-18T05:04:16.678Z,53.40
2018-12-18T05:05:16.593Z,54.00
2018-12-18T05:06:16.504Z,52.10
2018-12-18T05:07:16.416Z,52.70
2018-12-18T05:08:16.343Z,52.40
2018-12-18T05:09:16.258Z,53.90
2018-12-18T05:10:16.167Z,55.30
2018-12-18T05:11:16.078Z,56.10
2018-12-18T05:12:15.992Z,52.50
2018-12-18T05:13:15.907Z,55.00
2018-12-18T05:14:15.822Z,61.00
2018-12-18T05:15:15.729Z,56.30
2018-12-18T05:16:15.656Z,57.20
2018-12-18T05:17:15.568Z,54.40
2018-12-18T05:18:15.491Z,55.60
2018-12-18T05:19:15.395Z,54.00
2018-12-18T05:20:15.304Z,60.00
2018-12-18T05:21:15.219Z,62.00
2018-12-18T05:22:15.134Z,53.60
2018-12-18T05:23:15.044Z,56.40
2018-12-18T05:24:14.956Z,55.00
2018-12-18T05:25:14.882Z,56.80
2018-12-18T05:26:14.793Z,55.20
2018-12-18T05:27:14.706Z,55.80
2018-12-18T05:28:16.193Z,57.80
2018-12-18T05:29:14.543Z,53.80
2018-12-18T05:30:14.445Z,56.20
2018-12-18T05:31:14.358Z,56.50
2018-12-18T05:32:14.282Z,52.60
2018-12-18T05:33:14.194Z,51.10
2018-12-18T05:34:14.167Z,51.10
2018-12-18T05:35:14.021Z,49.40
2018-12-18T05:36:13.933Z,52.20
2018-12-18T05:37:13.845Z,51.40
2018-12-18T05:38:13.759Z,49.70
2018-12-18T05:39:13.672Z,50.10
2018-12-18T05:40:13.584Z,48.10
2018-12-18T05:41:13.507Z,50.40
2018-12-18T05:42:13.420Z,47.60
2018-12-18T05:43:13.332Z,50.00
2018-12-18T05:44:13.246Z,49.10
2018-12-18T05:45:13.171Z,49.80
2018-12-18T05:46:13.073Z,47.40
2018-12-18T05:47:12.984Z,46.10
2018-12-18T05:48:12.908Z,47.40
2018-12-18T05:49:12.821Z,48.30
2018-12-18T05:50:12.733Z,48.70
2018-12-18T05:51:12.646Z,45.20
2018-12-18T05:52:12.559Z,45.30
2018-12-18T05:53:12.532Z,45.50
2018-12-18T05:54:12.383Z,46.00
2018-12-18T05:55:12.297Z,46.80
2018-12-18T05:56:12.222Z,46.00
2018-12-18T05:57:12.134Z,44.60
2018-12-18T05:58:12.048Z,47.30
2018-12-18T05:59:11.972Z,48.10
2018-12-18T06:00:11.873Z,43.70
2018-12-18T06:01:11.784Z,43.00
2018-12-18T06:02:11.698Z,45.80
2018-12-18T06:03:11.622Z,44.30
2018-12-18T06:04:11.535Z,42.50
2018-12-18T06:05:11.455Z,45.30
2018-12-18T06:06:11.360Z,45.20
2018-12-18T06:07:11.275Z,43.40
2018-12-18T06:08:11.187Z,41.40
2018-12-18T06:09:11.098Z,48.00
2018-12-18T06:10:11.012Z,42.60
2018-12-18T06:11:10.936Z,45.50
2018-12-18T06:12:10.849Z,40.80
2018-12-18T06:13:10.761Z,43.80
2018-12-18T06:14:10.674Z,40.70
2018-12-18T06:15:10.587Z,40.60
2018-12-18T06:16:10.511Z,42.50
2018-12-18T06:17:10.424Z,43.50
2018-12-18T06:18:10.350Z,40.20
2018-12-18T06:19:10.249Z,40.40
2018-12-18T06:20:10.163Z,40.80
2018-12-18T06:21:10.080Z,41.90
2018-12-18T06:22:09.986Z,39.60
2018-12-18T06:23:09.900Z,39.80
2018-12-18T06:24:09.830Z,41.70
2018-12-18T06:25:09.738Z,41.00
2018-12-18T06:26:09.650Z,40.60
2018-12-18T06:27:09.565Z,39.20
2018-12-18T06:28:09.475Z,41.50
2018-12-18T06:29:09.403Z,40.70
2018-12-18T06:30:09.302Z,39.90
2018-12-18T06:31:09.231Z,39.90
2018-12-18T06:32:09.138Z,42.50
2018-12-18T06:33:09.051Z,40.30
2018-12-18T06:34:08.963Z,42.90
2018-12-18T06:35:10.379Z,39.90
2018-12-18T06:36:08.790Z,41.80
2018-12-18T06:37:08.713Z,43.10
2018-12-18T06:38:08.630Z,40.00
2018-12-18T06:39:08.539Z,39.80
2018-12-18T06:40:08.451Z,38.90
2018-12-18T06:41:08.368Z,40.60
2018-12-18T06:42:08.289Z,38.40
2018-12-18T06:43:08.191Z,39.70
2018-12-18T06:44:08.126Z,40.00
2018-12-18T06:45:08.028Z,39.80
2018-12-18T06:46:07.939Z,40.00
2018-12-18T06:47:07.856Z,39.30
2018-12-18T06:48:07.764Z,40.20
2018-12-18T06:49:07.690Z,39.20
2018-12-18T06:50:07.602Z,41.30
2018-12-18T06:51:07.528Z,39.60
2018-12-18T06:52:07.427Z,39.20
2018-12-18T06:53:07.340Z,38.90
2018-12-18T06:54:07.253Z,41.80
2018-12-18T06:55:07.165Z,42.60
2018-12-18T06:56:07.090Z,39.60
2018-12-18T06:57:07.003Z,40.40
2018-12-18T06:58:06.916Z,42.30
2018-12-18T06:59:06.831Z,42.20
2018-12-18T07:00:06.741Z,37.20
2018-12-18T07:01:06.655Z,39.00
2018-12-18T07:02:06.569Z,41.50
2018-12-18T07:03:06.537Z,42.50
2018-12-18T07:04:06.404Z,39.10
2018-12-18T07:05:06.316Z,38.70
2018-12-18T07:06:06.230Z,37.20
2018-12-18T07:07:06.142Z,38.50
2018-12-18T07:08:06.055Z,39.50
2018-12-18T07:09:05.981Z,38.60
2018-12-18T07:10:05.894Z,37.60
2018-12-18T07:11:05.806Z,39.00
2018-12-18T07:12:05.717Z,42.60
2018-12-18T07:13:05.633Z,36.90
2018-12-18T07:14:05.545Z,39.50
2018-12-18T07:15:05.467Z,35.80
2018-12-18T07:16:05.380Z,38.40
2018-12-18T07:17:05.294Z,39.80
2018-12-18T07:18:05.206Z,38.00
2018-12-18T07:19:05.124Z,38.30
2018-12-18T07:20:05.032Z,39.60
2018-12-18T07:21:04.945Z,40.20
2018-12-18T07:22:04.869Z,43.10
2018-12-18T07:23:04.782Z,38.30
2018-12-18T07:24:04.694Z,37.00
2018-12-18T07:25:04.607Z,39.40
2018-12-18T07:26:04.519Z,37.70
2018-12-18T07:27:04.433Z,36.80
2018-12-18T07:28:04.357Z,37.50
2018-12-18T07:29:04.270Z,37.20
2018-12-18T07:30:04.183Z,42.70
2018-12-18T07:31:04.095Z,36.70
2018-12-18T07:32:04.044Z,36.00
2018-12-18T07:33:03.934Z,37.90
2018-12-18T07:34:03.845Z,39.50
2018-12-18T07:35:03.759Z,35.60
2018-12-18T07:36:03.669Z,35.80
2018-12-18T07:37:03.586Z,34.60
2018-12-18T07:38:03.500Z,36.80
2018-12-18T07:39:03.409Z,35.40
2018-12-18T07:40:03.322Z,38.30
2018-12-18T07:41:03.245Z,37.90
2018-12-18T07:42:03.158Z,35.90
2018-12-18T07:43:03.084Z,37.10
2018-12-18T07:44:02.985Z,35.20
2018-12-18T07:45:02.897Z,38.10
2018-12-18T07:46:02.814Z,37.10
2018-12-18T07:47:02.735Z,38.00
2018-12-18T07:48:02.647Z,37.90
2018-12-18T07:49:02.561Z,38.20
2018-12-18T07:50:02.484Z,37.00
2018-12-18T07:51:02.386Z,33.80
2018-12-18T07:52:02.297Z,35.50
2018-12-18T07:53:02.222Z,35.60
2018-12-18T07:54:02.136Z,39.90
2018-12-18T07:55:02.048Z,35.70
2018-12-18T07:56:01.961Z,35.00
2018-12-18T07:57:01.875Z,34.50
2018-12-18T07:58:01.786Z,37.30
2018-12-18T07:59:01.711Z,37.40
2018-12-18T08:00:01.626Z,35.30
2018-12-18T08:01:01.540Z,36.80
2018-12-18T08:02:01.448Z,36.70
2018-12-18T08:03:01.374Z,34.00
2018-12-18T08:04:01.274Z,33.70
2018-12-18T08:05:01.189Z,37.70
2018-12-18T08:06:01.112Z,35.30
2018-12-18T08:07:01.024Z,31.00
2018-12-18T08:08:00.937Z,33.50
2018-12-18T08:09:00.849Z,34.00
2018-12-18T08:10:00.762Z,33.50
2018-12-18T08:11:00.676Z,33.20
2018-12-18T08:12:00.599Z,32.10
2018-12-18T08:13:00.512Z,33.20
2018-12-18T08:14:00.424Z,31.20
2018-12-18T08:15:00.338Z,37.00
2018-12-18T08:16:00.252Z,32.40
2018-12-18T08:17:00.162Z,32.50
2018-12-18T08:18:00.076Z,33.10
2018-12-18T08:19:00.000Z,32.30
2018-12-18T08:19:59.912Z,30.70
2018-12-18T08:20:59.825Z,32.80
2018-12-18T08:21:59.740Z,30.20
2018-12-18T08:22:59.651Z,33.80
2018-12-18T08:23:59.564Z,30.80
2018-12-18T08:24:59.489Z,31.90
2018-12-18T08:25:59.404Z,32.10
2018-12-18T08:26:59.313Z,31.80
2018-12-18T08:27:59.225Z,34.20
2018-12-18T08:28:59.139Z,31.10
2018-12-18T08:29:59.052Z,33.30
2018-12-18T08:30:58.977Z,32.00
2018-12-18T08:31:58.889Z,31.00
2018-12-18T08:32:58.803Z,30.10
2018-12-18T08:33:58.715Z,31.30
2018-12-18T08:34:58.626Z,29.10
2018-12-18T08:35:58.540Z,33.60
2018-12-18T08:36:58.465Z,32.50
2018-12-18T08:37:58.377Z,34.00
2018-12-18T08:38:58.292Z,31.50
2018-12-18T08:39:58.202Z,34.00
2018-12-18T08:40:58.118Z,31.00
2018-12-18T08:41:58.027Z,31.30
2018-12-18T08:42:57.953Z,30.70
2018-12-18T08:43:57.866Z,30.40
2018-12-18T08:44:57.783Z,32.00
2018-12-18T08:45:57.691Z,33.20
2018-12-18T08:46:57.604Z,31.40
2018-12-18T08:47:57.517Z,30.50
2018-12-18T08:48:57.443Z,31.00
2018-12-18T08:49:57.354Z,30.20
2018-12-18T08:50:57.267Z,28.80
2018-12-18T08:51:57.191Z,28.20
2018-12-18T08:52:57.092Z,28.10
2018-12-18T08:53:57.069Z,31.70
2018-12-18T08:54:56.931Z,31.70
2018-12-18T08:55:56.842Z,28.50
2018-12-18T08:56:56.754Z,28.70
2018-12-18T08:57:56.667Z,29.80
2018-12-18T08:58:56.592Z,29.60
2018-12-18T08:59:56.504Z,27.30
2018-12-18T09:00:56.417Z,28.70
2018-12-18T09:01:56.329Z,30.10
2018-12-18T09:02:56.242Z,26.70
2018-12-18T09:03:56.158Z,28.60
2018-12-18T09:04:56.079Z,28.40
2018-12-18T09:05:55.993Z,30.00
2018-12-18T09:06:55.904Z,27.80
2018-12-18T09:07:55.818Z,27.50
2018-12-18T09:08:55.743Z,28.70
2018-12-18T09:09:55.643Z,28.00
2018-12-18T09:10:55.573Z,27.50
2018-12-18T09:11:55.480Z,30.00
2018-12-18T09:12:55.394Z,28.70
2018-12-18T09:13:55.305Z,27.40
2018-12-18T09:14:55.219Z,27.70
2018-12-18T09:15:55.144Z,28.40
2018-12-18T09:16:55.060Z,28.30
2018-12-18T09:17:54.970Z,28.90
2018-12-18T09:18:54.881Z,27.90
2018-12-18T09:19:54.794Z,26.90
2018-12-18T09:20:54.719Z,27.30
2018-12-18T09:21:54.631Z,27.30
2018-12-18T09:22:54.544Z,27.70
2018-12-18T09:23:54.459Z,25.20
2018-12-18T09:24:54.382Z,25.60
2018-12-18T09:25:54.294Z,26.20
2018-12-18T09:26:54.207Z,26.00
2018-12-18T09:27:54.120Z,27.10
2018-12-18T09:28:54.044Z,24.50
2018-12-18T09:29:53.956Z,27.00
2018-12-18T09:30:53.877Z,25.40
2018-12-18T09:31:53.782Z,25.50
2018-12-18T09:32:53.698Z,28.30
2018-12-18T09:33:53.608Z,27.50
2018-12-18T09:34:53.547Z,27.40
2018-12-18T09:35:53.446Z,26.80
2018-12-18T09:36:53.357Z,24.00
2018-12-18T09:37:53.278Z,25.20
2018-12-18T09:38:53.184Z,25.70
2018-12-18T09:39:53.108Z,27.30
2018-12-18T09:40:53.021Z,25.80
2018-12-18T09:41:52.949Z,27.30
2018-12-18T09:42:52.847Z,26.00
2018-12-18T09:43:52.771Z,25.00
2018-12-18T09:44:52.683Z,26.50
2018-12-18T09:45:52.598Z,27.70
2018-12-18T09:46:52.509Z,25.40
2018-12-18T09:47:52.422Z,27.20
2018-12-18T09:48:52.347Z,25.80
2018-12-18T09:49:52.259Z,26.80
2018-12-18T09:50:52.173Z,26.10
2018-12-18T09:51:52.084Z,26.10
2018-12-18T09:52:51.998Z,29.50
2018-12-18T09:53:51.922Z,26.80
2018-12-18T09:54:51.834Z,25.30
2018-12-18T09:55:51.747Z,25.10
2018-12-18T09:56:51.673Z,24.00
2018-12-18T09:57:51.584Z,27.50
2018-12-18T09:58:51.498Z,25.70
2018-12-18T09:59:51.410Z,28.30
2018-12-18T10:00:51.337Z,25.10
2018-12-18T10:01:51.235Z,25.60
2018-12-18T10:02:51.160Z,26.90
2018-12-18T10:03:51.074Z,26.50
2018-12-18T10:04:50.986Z,25.30
2018-12-18T10:05:56.139Z,24.90
2018-12-18T10:06:50.824Z,24.50
2018-12-18T10:07:50.736Z,24.90
2018-12-18T10:08:50.651Z,26.50
2018-12-18T10:09:50.561Z,25.90
2018-12-18T10:10:50.478Z,26.70
2018-12-18T10:11:50.400Z,26.70
2018-12-18T10:12:50.324Z,24.20
2018-12-18T10:13:50.229Z,23.90
2018-12-18T10:14:50.138Z,26.50
2018-12-18T10:15:50.062Z,23.50
2018-12-18T10:16:49.975Z,25.10
2018-12-18T10:17:49.887Z,28.80
2018-12-18T10:18:49.801Z,24.30
2018-12-18T10:19:49.726Z,25.50
2018-12-18T10:20:49.637Z,26.20
2018-12-18T10:21:49.558Z,25.50
2018-12-18T10:22:49.462Z,25.20
2018-12-18T10:23:49.388Z,24.20
2018-12-18T10:24:49.303Z,23.50
2018-12-18T10:25:49.226Z,24.10
2018-12-18T10:26:49.126Z,23.70
2018-12-18T10:27:49.053Z,23.80
2018-12-18T10:28:48.975Z,25.40
2018-12-18T10:29:48.877Z,25.30
2018-12-18T10:30:48.788Z,26.10
2018-12-18T10:31:48.727Z,24.90
2018-12-18T10:32:48.631Z,24.40
2018-12-18T10:33:48.541Z,24.40
2018-12-18T10:34:48.455Z,25.30
2018-12-18T10:35:48.377Z,26.40
2018-12-18T10:36:48.288Z,22.60
2018-12-18T10:37:48.203Z,25.70
2018-12-18T10:38:48.115Z,23.10
2018-12-18T10:39:48.038Z,25.30
2018-12-18T10:40:47.954Z,25.60
2018-12-18T10:41:47.864Z,24.00
2018-12-18T10:42:47.779Z,25.20
2018-12-18T10:43:47.704Z,25.40
2018-12-18T10:44:47.614Z,23.10
2018-12-18T10:45:47.528Z,24.10
2018-12-18T10:46:47.452Z,23.30
2018-12-18T10:47:47.365Z,23.70
2018-12-18T10:48:47.279Z,23.70
2018-12-18T10:49:47.190Z,24.90
2018-12-18T10:50:47.104Z,24.00
2018-12-18T10:51:47.029Z,22.50
2018-12-18T10:52:46.940Z,24.60
2018-12-18T10:53:46.854Z,23.30
2018-12-18T10:54:46.765Z,23.30
2018-12-18T10:55:46.690Z,22.90
2018-12-18T10:56:46.605Z,23.60
2018-12-18T10:57:46.516Z,24.20
2018-12-18T10:58:46.430Z,25.10
2018-12-18T10:59:46.355Z,25.50
2018-12-18T11:00:46.267Z,23.90
2018-12-18T11:01:46.180Z,21.80
2018-12-18T11:02:46.093Z,23.50
2018-12-18T11:03:46.017Z,23.70
2018-12-18T11:04:45.930Z,25.70
2018-12-18T11:05:45.843Z,26.00
2018-12-18T11:06:45.769Z,23.80
2018-12-18T11:07:45.682Z,22.80
2018-12-18T11:08:45.593Z,24.00
2018-12-18T11:09:45.518Z,22.50
2018-12-18T11:10:45.433Z,23.40
2018-12-18T11:11:45.356Z,23.10
2018-12-18T11:12:45.256Z,22.20
2018-12-18T11:13:45.168Z,22.70
2018-12-18T11:14:45.093Z,22.30
2018-12-18T11:15:45.007Z,23.90
2018-12-18T11:16:44.918Z,22.30
2018-12-18T11:17:44.834Z,24.70
2018-12-18T11:18:44.757Z,23.40
2018-12-18T11:19:44.669Z,25.80
2018-12-18T11:20:44.585Z,22.20
2018-12-18T11:21:44.507Z,20.10
2018-12-18T11:22:44.419Z,27.30
2018-12-18T11:23:44.337Z,24.10
2018-12-18T11:24:44.245Z,23.10
2018-12-18T11:25:44.173Z,24.60
2018-12-18T11:26:44.083Z,22.30
2018-12-18T11:27:43.997Z,23.60
2018-12-18T11:28:43.919Z,21.20
2018-12-18T11:29:43.834Z,21.70
2018-12-18T11:30:43.745Z,21.30
2018-12-18T11:31:43.677Z,21.50
2018-12-18T11:32:43.583Z,24.10
2018-12-18T11:33:43.495Z,21.30
2018-12-18T11:34:43.409Z,24.20
2018-12-18T11:35:43.334Z,21.50
2018-12-18T11:36:43.253Z,21.50
2018-12-18T11:37:43.162Z,22.20
2018-12-18T11:38:43.072Z,23.10
2018-12-18T11:39:43.000Z,21.20
2018-12-18T11:40:42.909Z,20.20
2018-12-18T11:41:42.834Z,21.80
2018-12-18T11:42:42.747Z,21.50
2018-12-18T11:43:42.659Z,22.30
2018-12-18T11:44:42.571Z,22.70
2018-12-18T11:45:42.496Z,21.00
2018-12-18T11:46:42.410Z,20.30
2018-12-18T11:47:42.322Z,22.00
2018-12-18T11:48:42.247Z,23.30
2018-12-18T11:49:42.160Z,22.40
2018-12-18T11:50:43.308Z,22.80
2018-12-18T11:51:41.986Z,23.80
2018-12-18T11:52:41.911Z,22.30
2018-12-18T11:53:41.824Z,21.60
2018-12-18T11:54:41.735Z,23.50
2018-12-18T11:55:41.661Z,23.40
2018-12-18T11:56:41.572Z,22.20
2018-12-18T11:57:41.486Z,23.70
2018-12-18T11:58:41.398Z,23.30
2018-12-18T11:59:41.325Z,23.70
2018-12-18T12:00:41.236Z,24.20
2018-12-18T12:01:41.148Z,24.60
2018-12-18T12:02:42.995Z,24.70
2018-12-18T12:03:40.987Z,25.60
2018-12-18T12:04:40.898Z,27.50
2018-12-18T12:05:40.812Z,25.40
2018-12-18T12:06:40.737Z,23.50
2018-12-18T12:07:40.649Z,26.90
2018-12-18T12:08:40.562Z,24.00
2018-12-18T12:09:40.475Z,25.60
2018-12-18T12:10:40.399Z,26.60
2018-12-18T12:11:40.415Z,25.70
2018-12-18T12:12:40.239Z,24.30
2018-12-18T12:13:40.149Z,25.00
2018-12-18T12:14:40.063Z,27.60
2018-12-18T12:15:39.984Z,26.70
2018-12-18T12:16:39.888Z,25.60
2018-12-18T12:17:39.812Z,27.50
2018-12-18T12:18:39.725Z,23.60
2018-12-18T12:19:39.638Z,23.80
2018-12-18T12:20:39.553Z,23.40
2018-12-18T12:21:39.475Z,24.50
2018-12-18T12:22:39.403Z,22.80
2018-12-18T12:23:39.306Z,23.10
2018-12-18T12:24:39.242Z,24.30
2018-12-18T12:25:39.139Z,21.80
2018-12-18T12:26:39.050Z,22.70
2018-12-18T12:27:38.976Z,23.60
2018-12-18T12:28:38.890Z,24.10
2018-12-18T12:29:38.801Z,25.30
2018-12-18T12:30:38.714Z,22.60
2018-12-18T12:31:38.639Z,21.70
2018-12-18T12:32:38.551Z,21.50
2018-12-18T12:33:38.466Z,22.70
2018-12-18T12:34:38.389Z,22.20
2018-12-18T12:35:38.304Z,22.50
2018-12-18T12:36:38.240Z,22.10
2018-12-18T12:37:38.140Z,22.50
2018-12-18T12:38:38.051Z,19.50
2018-12-18T12:39:37.977Z,25.10
2018-12-18T12:40:37.890Z,21.10
2018-12-18T12:41:37.802Z,22.10
2018-12-18T12:42:37.739Z,21.10
2018-12-18T12:43:37.641Z,24.10
2018-12-18T12:44:37.553Z,21.10
2018-12-18T12:45:37.477Z,23.40
2018-12-18T12:46:37.392Z,20.90
2018-12-18T12:47:37.304Z,24.60
2018-12-18T12:48:37.228Z,22.90
2018-12-18T12:49:37.141Z,24.80
2018-12-18T12:50:37.053Z,23.20
2018-12-18T12:51:36.978Z,22.00